Time;durP1;ratioP1;P1;durP2;ratioP2;P2;SDS_P1;SDS_P2;PMS_P1;PMS_P2;Temp;Humidity;BMP_temperature;BMP_pressure;BME280_temperature;BME280_humidity;BME280_pressure;Samples;Min_cycle;Max_cycle;Signal;HPM_P1;HPM_P2
2021/07/15 00:00:34;;;;;;;24.77;9.07;;;18.90;99.90;;;;;;5033228;28;20465;-76
2021/07/15 00:03:03;;;;;;;21.10;8.93;;;18.90;99.90;;;;;;5032803;28;20029;-76
2021/07/15 00:05:29;;;;;;;24.17;10.35;;;18.80;99.90;;;;;;5032995;28;20026;-76
2021/07/15 00:07:55;;;;;;;21.05;8.80;;;18.80;99.90;;;;;;4997461;28;20484;-76
2021/07/15 00:10:27;;;;;;;22.60;9.30;;;18.80;99.90;;;;;;5013189;28;20022;-76
2021/07/15 00:12:53;;;;;;;20.50;9.55;;;18.80;99.90;;;;;;5013385;28;20033;-76
2021/07/15 00:15:22;;;;;;;23.17;9.55;;;18.80;99.90;;;;;;5013178;28;20379;-76
2021/07/15 00:17:47;;;;;;;23.00;9.80;;;18.70;99.90;;;;;;4995240;28;20034;-76
2021/07/15 00:20:15;;;;;;;17.48;8.90;;;18.80;99.90;;;;;;5032943;28;20029;-75
2021/07/15 00:22:41;;;;;;;23.23;10.10;;;18.80;99.90;;;;;;5032738;28;20025;-75
2021/07/15 00:25:13;;;;;;;25.17;9.77;;;18.80;99.90;;;;;;5032593;28;20030;-75
2021/07/15 00:27:39;;;;;;;24.77;11.32;;;18.80;99.90;;;;;;5032474;28;20067;-75
2021/07/15 00:30:07;;;;;;;19.80;9.77;;;18.80;99.90;;;;;;5013657;28;20391;-75
2021/07/15 00:32:33;;;;;;;21.23;9.57;;;18.80;99.90;;;;;;5012904;28;20438;-75
2021/07/15 00:34:59;;;;;;;22.73;10.43;;;18.70;99.90;;;;;;5012791;28;20034;-75
2021/07/15 00:37:25;;;;;;;24.25;10.15;;;18.70;99.90;;;;;;5015124;28;20418;-75
2021/07/15 00:39:50;;;;;;;20.50;9.07;;;18.70;99.90;;;;;;5032548;28;20029;-75
2021/07/15 00:42:16;;;;;;;27.08;11.15;;;18.70;99.90;;;;;;5036281;28;20478;-76
2021/07/15 00:44:42;;;;;;;17.70;8.77;;;18.70;99.90;;;;;;5035962;28;20075;-76
2021/07/15 00:47:07;;;;;;;24.85;10.25;;;18.70;99.90;;;;;;5018280;28;20036;-76
2021/07/15 00:49:33;;;;;;;22.27;9.35;;;18.70;99.90;;;;;;5021587;28;20399;-76
2021/07/15 00:51:59;;;;;;;21.30;9.85;;;18.80;99.90;;;;;;4998580;28;20053;-76
2021/07/15 00:54:25;;;;;;;21.45;9.98;;;18.80;99.90;;;;;;5016620;28;20021;-76
2021/07/15 00:56:50;;;;;;;22.50;10.25;;;18.80;99.90;;;;;;5016137;28;20018;-76
2021/07/15 00:59:20;;;;;;;20.75;10.38;;;18.80;99.90;;;;;;5027127;28;20076;-75
2021/07/15 01:01:46;;;;;;;21.90;9.75;;;18.80;99.90;;;;;;5035311;28;20025;-75
2021/07/15 01:04:12;;;;;;;22.02;10.27;;;18.80;99.90;;;;;;5017991;28;20025;-75
2021/07/15 01:06:37;;;;;;;18.15;9.55;;;18.80;99.90;;;;;;5035432;28;20032;-75
2021/07/15 01:09:04;;;;;;;21.35;8.93;;;18.80;99.90;;;;;;5025884;28;20376;-75
2021/07/15 01:12:19;;;;;;;19.98;8.35;;;18.80;99.90;;;;;;4999309;28;20462;-75
2021/07/15 01:15:04;;;;;;;21.05;8.77;;;18.80;99.90;;;;;;4965317;28;20033;-76
2021/07/15 01:17:37;;;;;;;23.73;9.32;;;18.80;99.90;;;;;;5016076;28;20026;-76
2021/07/15 01:20:33;;;;;;;21.13;8.50;;;18.80;99.90;;;;;;5015962;28;20026;-76
2021/07/15 01:23:27;;;;;;;22.60;9.07;;;18.80;99.90;;;;;;5015497;28;20022;-76
2021/07/15 01:26:11;;;;;;;20.58;8.55;;;18.70;99.90;;;;;;5015560;28;20018;-76
2021/07/15 01:29:09;;;;;;;18.15;8.95;;;18.70;99.90;;;;;;5020515;28;20449;-76
2021/07/15 01:31:39;;;;;;;21.95;9.63;;;18.70;99.90;;;;;;5035397;28;20465;-76
2021/07/15 01:34:08;;;;;;;24.42;9.85;;;18.70;99.90;;;;;;5035412;28;20029;-76
2021/07/15 01:36:34;;;;;;;24.17;9.75;;;18.70;99.90;;;;;;5017211;28;20027;-76
2021/07/15 01:39:09;;;;;;;22.50;9.57;;;18.60;99.90;;;;;;5008746;28;20026;-75
2021/07/15 01:41:47;;;;;;;19.70;8.50;;;18.60;99.90;;;;;;5015415;28;20022;-76
2021/07/15 01:44:22;;;;;;;21.75;8.63;;;18.60;99.90;;;;;;5015389;28;20148;-76
2021/07/15 01:46:47;;;;;;;26.33;8.32;;;18.60;99.90;;;;;;5015521;28;20028;-76
2021/07/15 01:49:14;;;;;;;20.63;7.15;;;18.60;99.90;;;;;;5023740;28;20116;-75
2021/07/15 01:51:42;;;;;;;15.45;8.13;;;18.60;99.90;;;;;;5034751;28;20021;-76
2021/07/15 01:54:08;;;;;;;19.98;8.45;;;18.60;99.90;;;;;;5034753;28;20037;-76
2021/07/15 01:56:38;;;;;;;18.75;7.82;;;18.60;99.90;;;;;;5017107;28;20394;-75
2021/07/15 01:59:07;;;;;;;22.27;7.93;;;18.60;99.90;;;;;;5026016;28;20026;-76
2021/07/15 02:01:35;;;;;;;16.02;7.78;;;18.50;99.90;;;;;;5014684;28;20084;-76
2021/07/15 02:04:03;;;;;;;19.42;8.95;;;18.50;99.90;;;;;;5015244;28;20475;-76
2021/07/15 02:06:32;;;;;;;21.25;8.77;;;18.50;99.90;;;;;;5014552;28;20022;-76
2021/07/15 02:09:00;;;;;;;21.85;7.93;;;18.50;99.90;;;;;;5021529;28;20079;-75
2021/07/15 02:11:33;;;;;;;20.55;8.25;;;18.40;99.90;;;;;;5034293;28;20109;-75
2021/07/15 02:14:01;;;;;;;18.40;7.45;;;18.40;99.90;;;;;;5034316;28;20042;-76
2021/07/15 02:16:27;;;;;;;;;;;18.40;99.90;;;;;;5035019;28;20018;-76
2021/07/15 02:18:54;;;;;;;19.60;7.53;;;18.40;99.90;;;;;;5009838;28;20321;-76
2021/07/15 02:21:21;;;;;;;20.25;8.25;;;18.40;99.90;;;;;;5014377;28;20124;-76
2021/07/15 02:23:46;;;;;;;19.50;7.50;;;18.40;99.90;;;;;;4996779;28;20053;-76
2021/07/15 02:26:13;;;;;;;15.55;7.95;;;18.40;99.90;;;;;;5014255;28;20518;-76
2021/07/15 02:28:40;;;;;;;26.95;8.45;;;18.30;99.90;;;;;;5000851;28;20374;-76
2021/07/15 02:31:15;;;;;;;18.27;7.97;;;18.30;99.90;;;;;;5034051;28;20037;-76
2021/07/15 02:33:47;;;;;;;18.42;8.50;;;18.30;99.90;;;;;;5033902;28;20100;-76
2021/07/15 02:36:15;;;;;;;16.15;8.40;;;18.30;99.90;;;;;;5033996;28;20031;-76
2021/07/15 02:38:42;;;;;;;18.40;8.02;;;18.30;99.90;;;;;;5015594;28;20503;-76
2021/07/15 02:41:08;;;;;;;19.80;7.75;;;18.40;99.90;;;;;;5014070;28;20080;-76
2021/07/15 02:43:34;;;;;;;25.30;9.70;;;18.30;99.90;;;;;;5014038;28;20030;-76
2021/07/15 02:46:00;;;;;;;17.73;6.70;;;18.30;99.90;;;;;;5013912;28;20032;-76
2021/07/15 02:48:26;;;;;;;20.23;7.35;;;18.30;99.90;;;;;;5011661;28;20033;-76
2021/07/15 02:50:52;;;;;;;15.00;7.30;;;18.40;99.90;;;;;;5033910;28;20022;-76
2021/07/15 02:53:19;;;;;;;18.73;7.10;;;18.40;99.90;;;;;;5033538;28;20083;-76
2021/07/15 02:56:10;;;;;;;19.15;7.53;;;18.40;99.90;;;;;;5032965;28;20025;-76
2021/07/15 02:58:44;;;;;;;16.92;7.18;;;18.40;99.90;;;;;;5033493;28;20029;-76
2021/07/15 03:01:16;;;;;;;15.20;6.97;;;18.40;99.90;;;;;;5033213;28;20025;-76
2021/07/15 03:03:49;;;;;;;15.75;6.53;;;18.40;99.90;;;;;;5033566;28;20032;-76
2021/07/15 03:06:25;;;;;;;16.45;7.28;;;18.40;99.90;;;;;;5022360;28;20029;-76
2021/07/15 03:08:59;;;;;;;16.23;7.10;;;18.30;99.90;;;;;;5013535;28;20038;-76
2021/07/15 03:11:33;;;;;;;16.00;6.38;;;18.40;99.90;;;;;;4996315;28;20021;-76
2021/07/15 03:14:01;;;;;;;16.92;7.50;;;18.40;99.90;;;;;;5013650;28;20487;-76
2021/07/15 03:16:27;;;;;;;16.92;7.00;;;18.40;99.90;;;;;;5007755;28;20022;-76
2021/07/15 03:18:57;;;;;;;15.50;6.57;;;18.40;99.90;;;;;;5015496;28;20037;-76
2021/07/15 03:21:24;;;;;;;14.27;5.65;;;18.30;99.90;;;;;;5015462;28;20021;-76
2021/07/15 03:23:54;;;;;;;15.70;6.38;;;18.30;99.90;;;;;;5015839;28;20037;-76
2021/07/15 03:26:21;;;;;;;13.60;6.25;;;18.30;99.90;;;;;;5022027;28;20029;-75
2021/07/15 03:28:49;;;;;;;14.52;5.57;;;18.30;99.90;;;;;;5013227;28;20069;-75
2021/07/15 03:31:16;;;;;;;14.25;6.28;;;18.30;99.90;;;;;;4995431;28;20496;-75
2021/07/15 03:33:42;;;;;;;15.32;5.72;;;18.30;99.90;;;;;;5015864;28;20045;-75
2021/07/15 03:36:11;;;;;;;11.77;5.32;;;18.30;99.90;;;;;;5033028;28;20104;-75
2021/07/15 03:38:40;;;;;;;15.40;5.43;;;18.30;99.90;;;;;;5015035;28;20391;-75
2021/07/15 03:41:07;;;;;;;12.43;4.95;;;18.30;99.90;;;;;;4993732;28;20388;-75
2021/07/15 03:43:34;;;;;;;16.70;6.25;;;18.30;99.90;;;;;;4993722;28;20019;-76
2021/07/15 03:46:01;;;;;;;15.48;6.40;;;18.30;99.90;;;;;;4993846;28;20499;-76
2021/07/15 03:48:28;;;;;;;17.73;7.05;;;18.30;99.90;;;;;;4993595;28;20030;-76
2021/07/15 03:51:03;;;;;;;18.90;6.75;;;18.20;99.90;;;;;;5028875;28;20071;-75
2021/07/15 03:53:29;;;;;;;18.45;7.22;;;18.20;99.90;;;;;;5033054;28;20026;-75
2021/07/15 03:55:57;;;;;;;18.58;6.78;;;18.20;99.90;;;;;;5033241;28;20108;-75
2021/07/15 03:58:25;;;;;;;19.45;7.53;;;18.20;99.90;;;;;;5015445;28;20053;-76
2021/07/15 04:00:55;;;;;;;21.45;7.13;;;18.30;99.90;;;;;;5015759;28;20096;-76
2021/07/15 04:03:21;;;;;;;18.88;7.43;;;18.20;99.90;;;;;;4995533;28;20450;-75
2021/07/15 04:05:50;;;;;;;18.88;7.30;;;18.20;99.90;;;;;;5013052;28;20026;-75
2021/07/15 04:08:16;;;;;;;;;;;18.20;99.90;;;;;;5014630;28;20022;-75
2021/07/15 04:10:43;;;;;;;20.88;7.85;;;18.20;99.90;;;;;;4995566;28;19964;-75
2021/07/15 04:13:12;;;;;;;18.88;7.50;;;18.30;99.90;;;;;;5016494;28;20046;-75
2021/07/15 04:15:53;;;;;;;;;;;18.20;99.90;;;;;;5017245;28;20036;-76
2021/07/15 04:18:23;;;;;;;22.17;7.95;;;18.20;99.90;;;;;;5020751;28;19913;-75
2021/07/15 04:20:49;;;;;;;22.10;8.00;;;18.20;99.90;;;;;;5037064;28;20029;-75
2021/07/15 04:23:18;;;;;;;19.67;8.23;;;18.20;99.90;;;;;;5036426;28;20025;-75
2021/07/15 04:25:46;;;;;;;18.80;8.60;;;18.10;99.90;;;;;;5018680;28;20018;-75
2021/07/15 04:28:14;;;;;;;22.27;8.45;;;18.10;99.90;;;;;;5015220;28;20041;-75
2021/07/15 04:30:43;;;;;;;20.85;8.45;;;18.10;99.90;;;;;;5028023;28;20021;-75
2021/07/15 04:33:10;;;;;;;24.83;8.70;;;18.20;99.90;;;;;;5036158;28;20045;-75
2021/07/15 04:35:36;;;;;;;25.10;7.90;;;18.10;99.90;;;;;;5036202;28;20491;-75
2021/07/15 04:38:04;;;;;;;21.85;8.27;;;18.10;99.90;;;;;;5018333;28;20025;-75
2021/07/15 04:40:31;;;;;;;23.50;8.18;;;18.20;99.90;;;;;;5008695;28;20132;-75
2021/07/15 04:43:08;;;;;;;18.15;7.28;;;18.10;99.90;;;;;;5016303;28;20018;-75
2021/07/15 04:45:38;;;;;;;20.67;7.35;;;18.20;99.90;;;;;;5016242;28;20037;-75
2021/07/15 04:48:05;;;;;;;19.95;7.65;;;18.10;99.90;;;;;;5016826;28;20024;-75
2021/07/15 04:50:34;;;;;;;23.60;8.20;;;18.10;99.90;;;;;;5016089;28;20022;-75
2021/07/15 04:53:01;;;;;;;;;;;18.10;99.90;;;;;;5016418;28;20094;-75
2021/07/15 04:55:27;;;;;;;24.70;7.97;;;18.10;99.90;;;;;;4998466;28;19906;-75
2021/07/15 04:57:54;;;;;;;19.92;7.97;;;18.10;99.90;;;;;;5016813;28;20029;-75
2021/07/15 05:00:21;;;;;;;22.05;7.90;;;18.10;99.90;;;;;;5036000;28;20018;-75
2021/07/15 05:02:52;;;;;;;21.85;7.50;;;18.10;99.90;;;;;;5035910;28;20112;-75
2021/07/15 05:05:17;;;;;;;19.00;7.65;;;18.10;99.90;;;;;;5035918;28;20026;-76
2021/07/15 05:07:43;;;;;;;13.68;6.30;;;18.00;99.90;;;;;;5017712;28;20383;-76
2021/07/15 05:10:10;;;;;;;16.50;6.85;;;18.00;99.90;;;;;;4998483;28;20018;-76
2021/07/15 05:12:36;;;;;;;19.25;6.90;;;18.00;99.90;;;;;;5015683;28;20026;-76
2021/07/15 05:15:08;;;;;;;19.92;6.47;;;18.00;99.90;;;;;;5015645;28;20022;-76
2021/07/15 05:17:34;;;;;;;23.08;8.45;;;18.00;99.90;;;;;;5015505;28;20022;-76
2021/07/15 05:20:00;;;;;;;20.73;7.15;;;18.00;99.90;;;;;;5033212;28;20032;-76
2021/07/15 05:22:26;;;;;;;18.60;6.85;;;18.00;99.90;;;;;;5035240;28;20021;-77
2021/07/15 05:24:51;;;;;;;20.58;7.93;;;18.00;99.90;;;;;;5035788;28;20033;-77
2021/07/15 05:27:17;;;;;;;17.17;6.78;;;18.00;99.90;;;;;;5034807;28;20025;-77
2021/07/15 05:29:43;;;;;;;25.50;9.70;;;18.00;99.90;;;;;;5017233;28;20079;-76
2021/07/15 05:32:09;;;;;;;16.83;7.35;;;17.90;99.90;;;;;;5035653;28;20352;-76
2021/07/15 05:34:35;;;;;;;19.55;7.28;;;17.90;99.90;;;;;;5034995;28;20018;-77
2021/07/15 05:37:02;;;;;;;19.52;6.57;;;17.90;99.90;;;;;;5028737;28;20061;-77
2021/07/15 05:39:27;;;;;;;20.02;5.82;;;17.90;99.90;;;;;;4997548;28;20526;-76
2021/07/15 05:41:55;;;;;;;17.00;5.55;;;17.90;99.90;;;;;;5015135;28;20053;-76
2021/07/15 05:44:20;;;;;;;19.45;6.18;;;17.90;99.90;;;;;;5015057;28;20030;-76
2021/07/15 05:46:46;;;;;;;19.27;5.90;;;17.90;99.90;;;;;;5018585;28;20039;-76
2021/07/15 05:49:11;;;;;;;15.75;6.18;;;17.90;99.90;;;;;;5016883;28;20034;-76
2021/07/15 05:51:37;;;;;;;18.55;6.32;;;17.90;99.90;;;;;;5034845;28;20026;-76
2021/07/15 05:54:03;;;;;;;15.73;6.53;;;17.90;99.90;;;;;;5034585;28;20025;-76
2021/07/15 05:56:29;;;;;;;17.88;6.68;;;18.00;99.90;;;;;;5023123;28;20092;-77
2021/07/15 05:58:55;;;;;;;15.50;5.63;;;18.00;99.90;;;;;;5013930;28;20029;-77
2021/07/15 06:01:20;;;;;;;17.73;6.55;;;18.00;99.90;;;;;;5016836;28;20052;-76
2021/07/15 06:03:47;;;;;;;26.67;6.60;;;18.50;99.90;;;;;;5032075;28;20487;-76
2021/07/15 06:06:13;;;;;;;17.38;6.50;;;17.90;99.90;;;;;;5014686;28;20021;-77
2021/07/15 06:08:38;;;;;;;16.77;6.68;;;17.90;99.90;;;;;;5014539;28;20535;-77
2021/07/15 06:11:04;;;;;;;17.63;6.03;;;17.90;99.90;;;;;;4997080;28;20018;-77
2021/07/15 06:13:31;;;;;;;18.58;5.80;;;17.90;99.90;;;;;;5000328;28;20505;-77
2021/07/15 06:15:56;;;;;;;22.13;6.95;;;17.90;99.90;;;;;;4999393;28;20108;-77
2021/07/15 06:18:22;;;;;;;19.67;5.95;;;17.90;99.90;;;;;;5021181;28;20483;-78
2021/07/15 06:20:47;;;;;;;20.70;4.97;;;17.90;99.90;;;;;;5005724;28;20018;-77
2021/07/15 06:23:13;;;;;;;12.88;4.85;;;17.90;99.90;;;;;;5000787;28;20046;-76
2021/07/15 06:25:39;;;;;;;15.07;4.32;;;17.90;99.90;;;;;;4996736;28;20030;-76
2021/07/15 06:28:05;;;;;;;20.45;4.80;;;17.80;99.90;;;;;;5014129;28;20030;-75
2021/07/15 06:30:31;;;;;;;12.93;5.30;;;18.20;99.90;;;;;;5014365;28;20034;-77
2021/07/15 06:32:58;;;;;;;14.65;4.95;;;17.80;99.90;;;;;;5014796;28;20022;-76
2021/07/15 06:35:24;;;;;;;20.88;5.10;;;17.80;99.90;;;;;;5013753;28;20022;-77
2021/07/15 06:37:52;;;;;;;17.38;4.65;;;17.80;99.90;;;;;;5014040;28;20022;-77
2021/07/15 06:40:18;;;;;;;19.30;5.70;;;17.70;99.90;;;;;;5014204;28;20116;-76
2021/07/15 06:42:45;;;;;;;15.85;5.03;;;17.80;99.90;;;;;;5014089;28;20089;-76
2021/07/15 06:45:12;;;;;;;15.40;5.18;;;17.80;99.90;;;;;;5014505;28;20383;-76
2021/07/15 06:47:38;;;;;;;18.50;6.50;;;17.80;99.90;;;;;;5013842;28;20399;-76
2021/07/15 06:50:06;;;;;;;11.30;5.35;;;17.80;99.90;;;;;;5018033;28;20028;-76
2021/07/15 06:52:32;;;;;;;;;;;17.80;99.90;;;;;;5014647;28;20026;-76
2021/07/15 06:55:01;;;;;;;15.95;5.07;;;17.80;99.90;;;;;;5013983;28;20386;-76
2021/07/15 06:57:27;;;;;;;11.65;4.85;;;17.80;99.90;;;;;;4998207;28;20022;-76
2021/07/15 06:59:53;;;;;;;18.67;5.45;;;17.80;99.90;;;;;;5014050;28;20433;-76
2021/07/15 07:02:18;;;;;;;13.55;4.65;;;17.80;99.90;;;;;;5017554;28;20029;-76
2021/07/15 07:04:44;;;;;;;13.88;4.63;;;17.90;99.90;;;;;;5019795;28;20041;-76
2021/07/15 07:07:10;;;;;;;17.52;6.30;;;17.90;99.90;;;;;;5026034;28;20075;-76
2021/07/15 07:09:36;;;;;;;23.20;6.30;;;17.90;99.90;;;;;;5008520;28;20505;-76
2021/07/15 07:12:02;;;;;;;12.07;3.85;;;17.90;99.90;;;;;;5014917;28;20032;-76
2021/07/15 07:14:27;;;;;;;17.75;5.38;;;17.90;99.90;;;;;;4995989;28;20116;-77
2021/07/15 07:16:53;;;;;;;18.67;5.00;;;17.90;99.90;;;;;;5013448;28;20053;-77
2021/07/15 07:19:19;;;;;;;18.10;5.05;;;17.90;99.90;;;;;;4996156;28;20029;-77
2021/07/15 07:21:44;;;;;;;15.48;4.97;;;17.90;99.90;;;;;;5014094;28;20080;-77
2021/07/15 07:24:10;;;;;;;10.60;4.15;;;18.20;99.90;;;;;;5015207;28;20025;-77
2021/07/15 07:26:36;;;;;;;16.08;5.53;;;17.90;99.90;;;;;;4995866;28;20387;-77
2021/07/15 07:29:06;;;;;;;17.80;5.60;;;17.90;99.90;;;;;;5013519;28;20026;-76
2021/07/15 07:31:32;;;;;;;20.55;5.53;;;18.50;99.90;;;;;;5018532;28;20500;-78
2021/07/15 07:33:59;;;;;;;16.40;5.03;;;17.80;99.90;;;;;;4998710;28;20025;-77
2021/07/15 07:36:26;;;;;;;17.48;4.95;;;17.90;99.90;;;;;;5011516;28;20057;-75
2021/07/15 07:38:51;;;;;;;17.60;5.80;;;17.90;99.90;;;;;;5020202;28;20511;-75
2021/07/15 07:41:17;;;;;;;15.73;5.95;;;17.80;99.90;;;;;;5013404;28;20022;-75
2021/07/15 07:43:42;;;;;;;14.45;5.28;;;17.90;99.90;;;;;;5015343;28;20022;-76
2021/07/15 07:46:08;;;;;;;16.67;5.35;;;17.90;99.90;;;;;;5019679;28;20030;-75
2021/07/15 07:48:34;;;;;;;17.70;5.22;;;17.90;99.90;;;;;;5022640;28;20041;-74
2021/07/15 07:51:00;;;;;;;15.00;5.35;;;17.90;99.90;;;;;;5036554;28;20021;-75
2021/07/15 07:53:27;;;;;;;14.88;5.32;;;17.80;99.90;;;;;;5019144;28;20383;-74
2021/07/15 07:55:54;;;;;;;15.65;5.07;;;17.90;99.90;;;;;;5036748;28;20026;-74
2021/07/15 07:58:24;;;;;;;14.32;5.25;;;17.80;99.90;;;;;;5034666;28;20132;-75
2021/07/15 08:00:50;;;;;;;13.57;4.18;;;17.90;99.90;;;;;;5017106;28;20036;-74
2021/07/15 08:03:17;;;;;;;14.35;4.43;;;17.90;99.90;;;;;;5018318;28;20032;-74
2021/07/15 08:05:49;;;;;;;19.67;5.50;;;17.90;99.90;;;;;;5016845;28;20041;-75
2021/07/15 08:08:17;;;;;;;20.25;5.13;;;17.90;99.90;;;;;;5000131;28;20034;-75
2021/07/15 08:10:43;;;;;;;16.55;5.03;;;17.90;99.90;;;;;;5016783;28;20383;-75
2021/07/15 08:13:09;;;;;;;17.60;5.75;;;17.90;99.90;;;;;;4999156;28;20021;-75
2021/07/15 08:15:35;;;;;;;14.90;5.85;;;17.90;99.90;;;;;;5000135;28;20025;-75
2021/07/15 08:18:00;;;;;;;13.32;5.05;;;17.90;99.90;;;;;;5016550;28;20029;-75
2021/07/15 08:20:27;;;;;;;14.32;5.40;;;18.00;99.90;;;;;;4999068;28;20368;-75
2021/07/15 08:22:53;;;;;;;12.52;4.57;;;18.00;99.90;;;;;;4998894;28;20042;-75
2021/07/15 08:25:19;;;;;;;17.88;5.38;;;18.00;99.90;;;;;;5016513;28;20021;-74
2021/07/15 08:27:46;;;;;;;17.20;4.97;;;18.00;99.90;;;;;;4999852;28;20503;-74
2021/07/15 08:30:13;;;;;;;14.85;4.57;;;18.10;99.90;;;;;;5020169;28;20072;-74
2021/07/15 08:32:39;;;;;;;13.10;4.78;;;18.00;99.90;;;;;;5018480;28;20030;-74
2021/07/15 08:35:07;;;;;;;15.45;4.88;;;18.10;99.90;;;;;;5035976;28;20464;-74
2021/07/15 08:37:33;;;;;;;11.80;4.43;;;18.10;99.90;;;;;;5035679;28;20056;-75
2021/07/15 08:39:59;;;;;;;14.95;4.30;;;18.20;99.90;;;;;;5036291;28;20044;-74
2021/07/15 08:42:26;;;;;;;12.07;4.30;;;18.30;99.90;;;;;;5008442;28;20017;-74
2021/07/15 08:44:53;;;;;;;18.65;4.15;;;18.30;99.90;;;;;;4999425;28;20375;-74
2021/07/15 08:47:19;;;;;;;10.15;4.03;;;18.40;99.90;;;;;;5016064;28;20344;-74
2021/07/15 08:49:48;;;;;;;14.60;4.03;;;18.40;99.90;;;;;;4998560;28;20030;-74
2021/07/15 08:52:15;;;;;;;11.10;4.53;;;18.30;99.90;;;;;;4998427;28;20025;-73
2021/07/15 08:54:56;;;;;;;8.88;3.47;;;18.40;99.90;;;;;;4998429;28;20022;-73
2021/07/15 08:57:22;;;;;;;9.30;3.50;;;18.40;99.90;;;;;;5035009;28;20482;-73
2021/07/15 08:59:48;;;;;;;6.30;2.97;;;18.40;99.90;;;;;;5035318;28;20060;-74
2021/07/15 09:02:18;;;;;;;12.90;3.83;;;18.40;99.90;;;;;;5035676;28;20033;-74
2021/07/15 09:04:44;;;;;;;12.70;3.08;;;18.30;99.90;;;;;;5035681;28;20100;-73
2021/07/15 09:07:10;;;;;;;15.07;4.13;;;18.30;99.90;;;;;;5017909;28;20057;-74
2021/07/15 09:09:36;;;;;;;12.88;3.35;;;18.30;99.90;;;;;;5033776;28;20018;-73
2021/07/15 09:12:01;;;;;;;12.00;4.15;;;18.20;99.90;;;;;;5017586;28;20082;-74
2021/07/15 09:14:27;;;;;;;12.07;3.47;;;18.20;99.90;;;;;;5017433;28;20022;-73
2021/07/15 09:16:57;;;;;;;13.13;3.65;;;18.20;99.90;;;;;;5017488;28;20051;-74
2021/07/15 09:19:25;;;;;;;9.30;4.10;;;18.20;99.90;;;;;;5035187;28;20112;-74
2021/07/15 09:21:52;;;;;;;10.82;3.47;;;18.20;99.90;;;;;;5035481;28;20026;-74
2021/07/15 09:24:39;;;;;;;13.55;4.10;;;18.20;99.90;;;;;;5035157;28;20389;-75
2021/07/15 09:27:19;;;;;;;11.40;3.75;;;18.20;99.90;;;;;;5035393;28;20116;-75
2021/07/15 09:30:02;;;;;;;15.90;4.28;;;18.30;99.90;;;;;;5035102;28;20505;-76
2021/07/15 09:32:27;;;;;;;18.08;5.18;;;18.20;99.90;;;;;;5035183;28;20026;-76
2021/07/15 09:35:02;;;;;;;13.32;5.07;;;18.20;99.90;;;;;;5035113;28;20071;-76
2021/07/15 09:37:36;;;;;;;11.88;4.32;;;18.20;99.90;;;;;;5035085;28;20056;-75
2021/07/15 09:40:04;;;;;;;15.43;5.22;;;18.20;99.90;;;;;;5035324;28;20144;-75
2021/07/15 09:42:30;;;;;;;12.38;4.22;;;18.10;99.90;;;;;;5025277;28;20522;-75
2021/07/15 09:44:56;;;;;;;13.32;3.97;;;18.20;99.90;;;;;;5016003;28;20030;-74
2021/07/15 09:47:44;;;;;;;11.70;4.22;;;18.20;99.90;;;;;;5015940;28;20029;-75
2021/07/15 09:50:15;;;;;;;8.85;3.75;;;18.20;99.90;;;;;;5020864;28;20378;-75
2021/07/15 09:52:42;;;;;;;10.98;3.50;;;18.20;99.90;;;;;;5034676;28;20025;-75
2021/07/15 09:55:37;;;;;;;8.70;3.50;;;18.20;99.90;;;;;;5018807;28;20112;-75
2021/07/15 09:58:07;;;;;;;11.60;4.70;;;18.20;99.90;;;;;;4996825;28;20160;-75
2021/07/15 10:00:35;;;;;;;13.32;4.03;;;18.20;99.90;;;;;;5016895;28;20029;-74
2021/07/15 10:03:02;;;;;;;11.05;3.97;;;18.20;99.90;;;;;;5005082;28;20026;-75
2021/07/15 10:05:28;;;;;;;14.73;4.13;;;18.10;99.90;;;;;;4997022;28;20034;-75
2021/07/15 10:08:10;;;;;;;8.85;3.97;;;18.10;99.90;;;;;;5024660;28;20382;-75
2021/07/15 10:10:37;;;;;;;13.40;4.05;;;18.10;99.90;;;;;;5033558;28;20044;-74
2021/07/15 10:13:17;;;;;;;9.48;3.05;;;18.10;99.90;;;;;;5033974;28;20444;-75
2021/07/15 10:15:46;;;;;;;7.88;2.65;;;18.10;99.90;;;;;;5017106;28;20025;-75
2021/07/15 10:18:12;;;;;;;16.70;3.65;;;18.10;99.90;;;;;;5034236;28;20113;-74
2021/07/15 10:20:51;;;;;;;13.98;3.83;;;18.10;99.90;;;;;;5023913;28;20034;-75
2021/07/15 10:23:29;;;;;;;7.00;3.83;;;18.10;99.90;;;;;;4996842;28;20025;-74
2021/07/15 10:25:55;;;;;;;10.50;3.42;;;18.20;99.90;;;;;;5014265;28;20025;-75
2021/07/15 10:28:21;;;;;;;8.48;3.50;;;18.30;99.90;;;;;;5014065;28;20033;-75
2021/07/15 10:30:47;;;;;;;10.65;3.00;;;18.40;99.90;;;;;;5014136;28;20033;-74
2021/07/15 10:33:12;;;;;;;11.63;3.00;;;18.50;99.90;;;;;;5015324;28;20022;-75
2021/07/15 10:35:38;;;;;;;7.97;2.90;;;18.60;99.90;;;;;;5027868;28;20159;-75
2021/07/15 10:38:04;;;;;;;7.88;3.28;;;18.60;99.90;;;;;;5020568;28;20029;-75
2021/07/15 10:40:30;;;;;;;5.85;3.17;;;18.60;99.90;;;;;;5014122;28;20030;-74
2021/07/15 10:42:55;;;;;;;7.20;3.15;;;18.60;99.90;;;;;;5015074;28;20104;-74
2021/07/15 10:45:21;;;;;;;7.18;2.30;;;18.60;99.90;;;;;;4995095;28;20029;-75
2021/07/15 10:47:51;;;;;;;9.25;2.38;;;18.60;99.90;;;;;;5023090;28;20022;-74
2021/07/15 10:50:19;;;;;;;6.28;2.67;;;18.50;99.90;;;;;;5033135;28;20025;-75
2021/07/15 10:52:46;;;;;;;6.60;2.40;;;18.50;99.90;;;;;;5033924;28;20442;-74
2021/07/15 10:55:13;;;;;;;8.32;2.92;;;18.30;99.90;;;;;;5033643;28;20029;-74
2021/07/15 10:57:39;;;;;;;13.35;3.42;;;18.40;99.90;;;;;;5014068;28;20021;-74
2021/07/15 11:00:25;;;;;;;11.43;3.17;;;18.40;99.90;;;;;;5033410;28;20028;-74
2021/07/15 11:03:28;;;;;;;7.22;2.90;;;18.40;99.90;;;;;;5021868;28;20021;-74
2021/07/15 11:05:57;;;;;;;6.45;3.78;;;18.40;99.90;;;;;;4946020;29;20028;-75
2021/07/15 11:08:55;;;;;;;11.70;3.45;;;18.50;99.90;;;;;;4982254;28;20496;-75
2021/07/15 11:11:35;;;;;;;11.40;3.97;;;18.50;99.90;;;;;;4986940;28;20038;-75
2021/07/15 11:14:00;;;;;;;7.68;3.70;;;18.50;99.90;;;;;;4993915;28;20027;-75
2021/07/15 11:16:50;;;;;;;11.85;3.97;;;18.50;99.90;;;;;;5005162;28;20026;-75
2021/07/15 11:19:55;;;;;;;7.32;4.50;;;18.50;99.90;;;;;;5031652;28;20108;-75
2021/07/15 11:22:33;;;;;;;8.23;4.32;;;18.50;99.90;;;;;;5015451;28;20438;-75
2021/07/15 11:25:07;;;;;;;11.10;4.65;;;18.50;99.90;;;;;;5033039;28;20038;-75
2021/07/15 11:27:43;;;;;;;9.20;3.70;;;18.50;99.90;;;;;;5033107;28;20033;-75
2021/07/15 11:30:12;;;;;;;15.30;4.55;;;18.60;99.90;;;;;;5031290;28;20030;-74
2021/07/15 11:32:38;;;;;;;7.93;3.92;;;18.60;99.90;;;;;;5033192;28;20034;-74
2021/07/15 11:35:22;;;;;;;12.45;4.32;;;18.50;99.90;;;;;;5032621;28;20025;-74
2021/07/15 11:38:06;;;;;;;21.02;5.35;;;18.50;99.90;;;;;;5015209;28;20514;-74
2021/07/15 11:40:35;;;;;;;10.38;4.70;;;18.50;99.90;;;;;;5033277;28;20075;-74
2021/07/15 11:43:16;;;;;;;11.25;5.57;;;18.50;99.90;;;;;;5032959;28;20034;-74
2021/07/15 11:46:03;;;;;;;11.70;4.00;;;18.50;99.90;;;;;;5029455;28;20475;-74
2021/07/15 11:48:47;;;;;;;13.15;5.28;;;18.50;99.90;;;;;;5033242;28;20119;-74
2021/07/15 11:51:30;;;;;;;12.05;4.47;;;18.50;99.90;;;;;;5015273;28;20465;-74
2021/07/15 11:54:20;;;;;;;10.13;3.78;;;18.50;99.90;;;;;;5033673;28;20017;-74
2021/07/15 11:56:50;;;;;;;11.93;4.60;;;18.50;99.90;;;;;;5033070;28;20017;-74
2021/07/15 11:59:32;;;;;;;16.02;4.47;;;18.50;99.90;;;;;;5015192;28;20021;-74
2021/07/15 12:02:22;;;;;;;13.15;4.72;;;18.50;99.90;;;;;;5015099;28;20398;-74
2021/07/15 12:05:12;;;;;;;10.68;3.80;;;18.50;99.90;;;;;;5015147;28;20052;-74
2021/07/15 12:08:12;;;;;;;13.77;4.03;;;18.50;99.90;;;;;;5033646;28;20053;-74
2021/07/15 12:10:43;;;;;;;13.45;3.72;;;18.60;99.90;;;;;;5032785;28;20120;-74
2021/07/15 12:13:11;;;;;;;11.05;4.00;;;18.70;99.90;;;;;;5032757;28;20025;-74
2021/07/15 12:15:39;;;;;;;14.23;4.13;;;18.60;99.90;;;;;;5033030;28;20103;-74
2021/07/15 12:18:13;;;;;;;16.77;4.73;;;18.70;99.90;;;;;;5021568;28;20022;-74
2021/07/15 12:20:45;;;;;;;12.88;4.00;;;18.70;99.90;;;;;;5012945;28;20260;-74
2021/07/15 12:23:18;;;;;;;8.15;2.95;;;18.80;99.90;;;;;;5012939;28;20475;-74
2021/07/15 12:25:45;;;;;;;9.80;3.70;;;18.90;99.90;;;;;;4995316;28;20018;-74
2021/07/15 12:28:16;;;;;;;11.07;3.30;;;18.90;99.90;;;;;;5012681;28;20394;-74
2021/07/15 12:30:43;;;;;;;13.02;3.50;;;18.90;99.90;;;;;;5000078;28;20049;-74
2021/07/15 12:33:09;;;;;;;8.38;3.45;;;18.90;99.90;;;;;;5034292;28;20025;-74
2021/07/15 12:35:36;;;;;;;12.32;4.05;;;18.90;99.90;;;;;;5036187;28;20021;-74
2021/07/15 12:38:16;;;;;;;9.10;3.20;;;18.90;99.90;;;;;;5036193;28;20084;-74
2021/07/15 12:40:42;;;;;;;9.00;3.63;;;18.90;99.90;;;;;;5018498;28;20056;-74
2021/07/15 12:43:21;;;;;;;11.15;3.58;;;18.80;99.90;;;;;;5018476;28;20029;-74
2021/07/15 12:45:48;;;;;;;10.43;3.20;;;18.80;99.90;;;;;;5036055;28;20510;-74
2021/07/15 12:48:21;;;;;;;10.43;4.47;;;18.80;99.90;;;;;;5035802;28;20415;-75
2021/07/15 12:50:47;;;;;;;6.78;2.78;;;18.80;99.90;;;;;;5022098;28;20122;-75